Weston, West Virginia
Current Conditions -  °F | °C
As of 4:55 AM on Tuesday 21 Oct 2014 (Local Time) from KW22 Reporting Station
Broken Clouds Broken Clouds  
Wind Chill: 11°   Ceiling: 4400
Heat Index: 11°   Visibility: 10mi
Dew Point:   Wind: 0mph
Humidity: 82%   Direction: NA
Pressure: 29.89"   Gusts: 12mph
Location:  39.04°N, 80.47°W
Report Text: KW22 210855Z AUTO 00000G10KT 10SM FEW016 SCT031 BKN044 11/08 A2989 RMK AO2
Loading
Personal Weather Stations






























Interactive Weather Map
Tropical Storm Tracking
New forecast layout! Learn more

10-Day Weather Forecast

Advertisements
Track Severe Weather on mobile